createdAt,value
2018-12-19T00:01:45.709Z,7.60
2018-12-19T00:04:19.662Z,8.43
2018-12-19T00:06:53.484Z,10.43
2018-12-19T00:09:27.382Z,7.67
2018-12-19T00:12:01.141Z,8.03
2018-12-19T00:14:34.914Z,8.87
2018-12-19T00:17:08.908Z,7.53
2018-12-19T00:19:42.737Z,8.70
2018-12-19T00:22:16.422Z,8.13
2018-12-19T00:24:50.217Z,8.67
2018-12-19T00:27:23.930Z,7.20
2018-12-19T00:29:57.803Z,7.50
2018-12-19T00:32:31.616Z,7.93
2018-12-19T00:35:05.506Z,8.17
2018-12-19T00:37:39.446Z,7.07
2018-12-19T00:40:13.381Z,7.47
2018-12-19T00:42:47.230Z,7.03
2018-12-19T00:45:21.070Z,9.33
2018-12-19T00:47:54.903Z,6.93
2018-12-19T00:50:28.722Z,6.57
2018-12-19T00:53:02.539Z,10.73
2018-12-19T00:55:36.545Z,8.33
2018-12-19T00:58:10.467Z,7.97
2018-12-19T01:00:44.335Z,7.43
2018-12-19T01:03:18.296Z,8.97
2018-12-19T01:05:52.192Z,7.33
2018-12-19T01:08:25.846Z,8.30
2018-12-19T01:10:59.710Z,8.63
2018-12-19T01:13:33.469Z,6.37
2018-12-19T01:16:07.322Z,8.37
2018-12-19T01:18:41.110Z,6.80
2018-12-19T01:21:14.925Z,5.87
2018-12-19T01:23:48.745Z,7.97
2018-12-19T01:26:22.494Z,6.57
2018-12-19T01:28:56.309Z,6.13
2018-12-19T01:31:30.136Z,9.60
2018-12-19T01:34:03.886Z,8.57
2018-12-19T01:36:37.785Z,4.90
2018-12-19T01:39:11.788Z,6.53
2018-12-19T01:41:45.770Z,6.67
2018-12-19T01:44:19.681Z,6.00
2018-12-19T01:46:53.528Z,6.10
2018-12-19T01:49:27.635Z,5.90
2018-12-19T01:52:01.369Z,7.33
2018-12-19T01:54:35.117Z,6.47
2018-12-19T01:57:08.940Z,8.23
2018-12-19T01:59:42.746Z,5.87
2018-12-19T02:02:16.588Z,6.03
2018-12-19T02:04:50.595Z,6.47
2018-12-19T02:07:24.441Z,7.93
2018-12-19T02:09:58.225Z,6.27
2018-12-19T02:12:32.060Z,5.90
2018-12-19T02:15:05.953Z,6.53
2018-12-19T02:17:39.616Z,7.27
2018-12-19T02:20:13.773Z,6.00
2018-12-19T02:22:47.741Z,5.70
2018-12-19T02:25:21.529Z,9.00
2018-12-19T02:27:55.333Z,6.90
2018-12-19T02:30:29.209Z,7.67
2018-12-19T02:33:03.035Z,9.43
2018-12-19T02:35:36.849Z,8.17
2018-12-19T02:38:10.730Z,7.13
2018-12-19T02:40:44.581Z,7.17
2018-12-19T02:43:18.297Z,7.07
2018-12-19T02:45:52.048Z,8.13
2018-12-19T02:48:26.063Z,7.80
2018-12-19T02:50:59.921Z,8.30
2018-12-19T02:53:33.804Z,8.43
2018-12-19T02:56:07.596Z,6.93
2018-12-19T02:58:41.468Z,8.80
2018-12-19T03:01:15.271Z,7.57
2018-12-19T03:03:49.061Z,8.37
2018-12-19T03:06:22.787Z,8.37
2018-12-19T03:08:56.600Z,8.60
2018-12-19T03:11:30.534Z,9.37
2018-12-19T03:14:04.629Z,11.53
2018-12-19T03:16:38.422Z,10.63
2018-12-19T03:19:12.420Z,8.53
2018-12-19T03:21:46.278Z,8.30
2018-12-19T03:24:20.112Z,8.23
2018-12-19T03:26:53.909Z,8.57
2018-12-19T03:29:27.890Z,8.00
2018-12-19T03:32:01.682Z,9.30
2018-12-19T03:34:35.526Z,8.27
2018-12-19T03:37:09.495Z,8.27
2018-12-19T03:39:50.030Z,8.43
2018-12-19T03:42:19.209Z,9.03
2018-12-19T03:44:53.182Z,10.27
2018-12-19T03:47:27.171Z,8.00
2018-12-19T03:50:01.181Z,10.80
2018-12-19T03:52:35.051Z,11.80
2018-12-19T03:55:09.021Z,10.03
2018-12-19T03:57:42.858Z,10.53
2018-12-19T04:00:16.630Z,11.87
2018-12-19T04:02:50.561Z,15.13
2018-12-19T04:05:24.224Z,13.50
2018-12-19T04:07:57.922Z,12.20
2018-12-19T04:10:31.868Z,12.23
2018-12-19T04:13:05.808Z,11.73
2018-12-19T04:15:39.552Z,13.03
2018-12-19T04:18:13.356Z,13.40
2018-12-19T04:20:47.287Z,12.60
2018-12-19T04:23:21.112Z,12.87
2018-12-19T04:25:54.962Z,12.07
2018-12-19T04:28:28.736Z,13.90
2018-12-19T04:31:02.539Z,11.80
2018-12-19T04:33:36.309Z,14.30
2018-12-19T04:36:10.418Z,14.13
2018-12-19T04:38:44.421Z,12.73
2018-12-19T04:41:18.386Z,15.93
2018-12-19T04:43:52.477Z,13.37
2018-12-19T04:46:26.294Z,13.57
2018-12-19T04:49:00.406Z,13.10
2018-12-19T04:51:35.287Z,14.50
2018-12-19T04:54:09.138Z,13.67
2018-12-19T04:56:42.995Z,12.97
2018-12-19T04:59:17.019Z,13.93
2018-12-19T05:01:51.069Z,15.67
2018-12-19T05:04:25.871Z,13.13
2018-12-19T05:06:59.766Z,12.80
2018-12-19T05:09:33.513Z,14.27
2018-12-19T05:12:07.365Z,15.70
2018-12-19T05:14:41.061Z,12.80
2018-12-19T05:17:14.902Z,14.70
2018-12-19T05:19:48.849Z,15.40
2018-12-19T05:22:22.773Z,13.03
2018-12-19T05:24:56.442Z,14.47
2018-12-19T05:27:30.313Z,16.70
2018-12-19T05:30:06.542Z,15.00
2018-12-19T05:32:40.413Z,14.10
2018-12-19T05:35:14.146Z,14.17
2018-12-19T05:37:47.942Z,14.23
2018-12-19T05:40:21.691Z,14.97
2018-12-19T05:42:55.554Z,13.77
2018-12-19T05:45:29.441Z,14.80
2018-12-19T05:48:03.256Z,14.63
2018-12-19T05:50:37.125Z,14.77
2018-12-19T05:53:10.910Z,14.70
2018-12-19T05:55:44.900Z,13.93
2018-12-19T05:58:18.818Z,12.37
2018-12-19T06:00:52.722Z,12.80
2018-12-19T06:03:26.803Z,11.63
2018-12-19T06:06:00.605Z,14.20
2018-12-19T06:08:34.456Z,12.63
2018-12-19T06:11:08.252Z,15.17
2018-12-19T06:13:42.082Z,14.23
2018-12-19T06:16:15.920Z,16.40
2018-12-19T06:18:49.862Z,15.17
2018-12-19T06:21:23.571Z,16.90
2018-12-19T06:23:57.346Z,15.30
2018-12-19T06:26:31.311Z,16.00
2018-12-19T06:29:05.239Z,15.03
2018-12-19T06:31:39.206Z,18.00
2018-12-19T06:34:13.002Z,15.23
2018-12-19T06:36:46.934Z,17.00
2018-12-19T06:39:20.626Z,14.17
2018-12-19T06:41:54.321Z,17.17
2018-12-19T06:44:28.091Z,15.20
2018-12-19T06:47:02.033Z,14.27
2018-12-19T06:49:35.838Z,18.40
2018-12-19T06:52:09.653Z,20.13
2018-12-19T06:54:43.577Z,18.43
2018-12-19T06:57:17.287Z,19.93
2018-12-19T06:59:51.251Z,22.80
2018-12-19T07:02:25.061Z,19.37
2018-12-19T07:04:58.878Z,17.10
2018-12-19T07:07:32.750Z,20.70
2018-12-19T07:10:06.549Z,19.93
2018-12-19T07:12:40.462Z,20.97
2018-12-19T07:15:14.364Z,22.70
2018-12-19T07:17:48.246Z,23.50
2018-12-19T07:20:22.262Z,22.77
2018-12-19T07:22:56.294Z,26.13
2018-12-19T07:25:30.252Z,21.53
2018-12-19T07:28:04.181Z,22.27
2018-12-19T07:30:38.040Z,24.00
2018-12-19T07:33:11.969Z,23.53
2018-12-19T07:35:45.872Z,22.37
2018-12-19T07:38:19.769Z,23.23
2018-12-19T07:40:53.680Z,27.10
2018-12-19T07:43:27.508Z,25.47
2018-12-19T07:46:01.337Z,23.87
2018-12-19T07:48:35.333Z,21.97
2018-12-19T07:51:09.123Z,25.27
2018-12-19T07:53:43.105Z,25.83
2018-12-19T07:56:17.212Z,26.70
2018-12-19T07:58:50.996Z,27.23
2018-12-19T08:01:24.760Z,27.30
2018-12-19T08:03:58.917Z,23.27
2018-12-19T08:06:32.667Z,24.80
2018-12-19T08:09:07.632Z,23.43
2018-12-19T08:11:41.572Z,25.70
2018-12-19T08:14:15.566Z,24.10
2018-12-19T08:16:49.211Z,20.90
2018-12-19T08:19:23.055Z,25.03
2018-12-19T08:21:56.782Z,27.97
2018-12-19T08:24:30.635Z,26.77
2018-12-19T08:27:04.334Z,24.30
2018-12-19T08:29:38.263Z,24.17
2018-12-19T08:32:12.058Z,26.47
2018-12-19T08:34:45.958Z,24.50
2018-12-19T08:37:19.915Z,22.70
2018-12-19T08:39:53.754Z,24.87
2018-12-19T08:42:27.629Z,24.60
2018-12-19T08:45:01.554Z,26.17
2018-12-19T08:47:35.566Z,27.27
2018-12-19T08:50:09.614Z,24.70
2018-12-19T08:52:43.553Z,24.03
2018-12-19T08:55:17.495Z,24.03
2018-12-19T08:57:51.360Z,26.13
2018-12-19T09:00:25.270Z,27.03
2018-12-19T09:02:59.088Z,24.07
2018-12-19T09:05:32.834Z,23.40
2018-12-19T09:08:06.561Z,25.17
2018-12-19T09:10:40.557Z,25.60
2018-12-19T09:13:14.373Z,24.13
2018-12-19T09:15:51.072Z,25.33
2018-12-19T09:18:24.868Z,26.27
2018-12-19T09:20:58.655Z,27.13
2018-12-19T09:23:32.469Z,23.83
2018-12-19T09:26:06.478Z,24.47
2018-12-19T09:28:40.626Z,22.13
2018-12-19T09:31:14.509Z,24.90
2018-12-19T09:33:48.533Z,23.80
2018-12-19T09:36:22.306Z,23.07
2018-12-19T09:38:56.240Z,25.43
2018-12-19T09:41:30.016Z,24.43
2018-12-19T09:44:03.958Z,25.97
2018-12-19T09:46:37.856Z,24.97
2018-12-19T09:49:12.444Z,22.07
2018-12-19T09:51:47.502Z,23.97
2018-12-19T09:54:21.237Z,25.03
2018-12-19T09:56:55.075Z,20.50
2018-12-19T09:59:29.053Z,22.87
2018-12-19T10:02:02.918Z,26.93
2018-12-19T10:04:36.782Z,26.33
2018-12-19T10:07:10.741Z,22.17
2018-12-19T10:09:44.581Z,23.33
2018-12-19T10:12:18.618Z,21.80
2018-12-19T10:14:52.510Z,21.83
2018-12-19T10:17:26.510Z,23.00
2018-12-19T10:20:00.413Z,24.37
2018-12-19T10:22:34.251Z,22.07
2018-12-19T10:25:13.657Z,21.07
2018-12-19T10:27:47.362Z,22.20
2018-12-19T10:30:21.301Z,26.67
2018-12-19T10:32:55.681Z,21.57
2018-12-19T10:35:29.582Z,21.40
2018-12-19T10:38:04.377Z,21.73
2018-12-19T10:40:38.314Z,22.00
2018-12-19T10:43:12.305Z,22.70
2018-12-19T10:45:46.286Z,18.80
2018-12-19T10:48:20.125Z,21.10
2018-12-19T10:50:54.047Z,19.63
2018-12-19T10:53:27.862Z,20.37
2018-12-19T10:56:01.695Z,20.70
2018-12-19T10:58:35.647Z,21.80
2018-12-19T11:01:09.392Z,20.43
2018-12-19T11:03:43.251Z,18.07
2018-12-19T11:06:17.056Z,22.37
2018-12-19T11:08:50.722Z,19.33
2018-12-19T11:11:24.541Z,19.90
2018-12-19T11:13:58.397Z,19.87
2018-12-19T11:16:32.172Z,17.67
2018-12-19T11:19:06.162Z,17.87
2018-12-19T11:21:40.067Z,19.30
2018-12-19T11:24:13.816Z,20.80
2018-12-19T11:26:47.861Z,16.77
2018-12-19T11:29:21.574Z,18.47
2018-12-19T11:31:55.438Z,17.73
2018-12-19T11:34:29.299Z,16.97
2018-12-19T11:37:03.158Z,17.30
2018-12-19T11:39:37.097Z,20.87
2018-12-19T11:42:11.045Z,18.40
2018-12-19T11:44:45.059Z,19.77
2018-12-19T11:47:18.896Z,20.23
2018-12-19T11:49:52.793Z,19.57
2018-12-19T11:52:26.609Z,17.83
2018-12-19T11:55:00.449Z,21.03
2018-12-19T11:57:34.564Z,19.17
2018-12-19T12:00:08.907Z,21.60
2018-12-19T12:02:42.590Z,15.07
2018-12-19T12:05:16.535Z,17.47
2018-12-19T12:07:50.469Z,17.03
2018-12-19T12:10:24.278Z,20.70
2018-12-19T12:12:58.075Z,18.37
2018-12-19T12:15:31.910Z,17.87
2018-12-19T12:18:06.305Z,16.13
2018-12-19T12:20:40.121Z,14.43
2018-12-19T12:23:14.138Z,13.57
2018-12-19T12:25:48.004Z,14.40
2018-12-19T12:28:21.814Z,14.40
2018-12-19T12:30:55.945Z,17.23
2018-12-19T12:33:29.946Z,14.47
2018-12-19T12:36:04.952Z,12.77
2018-12-19T12:38:38.779Z,14.63
2018-12-19T12:41:12.616Z,14.63
2018-12-19T12:43:46.510Z,12.73
2018-12-19T12:46:20.344Z,12.03
2018-12-19T12:48:54.261Z,12.37
2018-12-19T12:51:28.061Z,10.37
2018-12-19T12:54:01.967Z,12.80
2018-12-19T12:56:35.895Z,12.33
2018-12-19T12:59:09.921Z,11.67
2018-12-19T13:01:43.894Z,12.77
2018-12-19T13:04:17.755Z,11.53
2018-12-19T13:06:51.534Z,11.47
2018-12-19T13:09:25.385Z,13.03
2018-12-19T13:11:59.178Z,10.20
2018-12-19T13:14:33.053Z,9.97
2018-12-19T13:17:06.753Z,9.50
2018-12-19T13:19:40.766Z,9.97
2018-12-19T13:22:14.532Z,10.03
2018-12-19T13:24:48.313Z,9.70
2018-12-19T13:27:22.109Z,9.20
2018-12-19T13:29:56.055Z,10.00
2018-12-19T13:32:29.823Z,10.60
2018-12-19T13:35:04.113Z,12.00
2018-12-19T13:37:38.105Z,11.47
2018-12-19T13:40:11.902Z,10.23
2018-12-19T13:42:45.625Z,10.47
2018-12-19T13:45:19.374Z,9.60
2018-12-19T13:47:53.195Z,10.47
2018-12-19T13:50:26.966Z,10.57
2018-12-19T13:53:00.793Z,11.47
2018-12-19T13:55:34.771Z,12.87
2018-12-19T13:58:08.766Z,12.03
2018-12-19T14:00:42.552Z,12.53
2018-12-19T14:03:16.278Z,12.33
2018-12-19T14:05:50.107Z,13.70
2018-12-19T14:08:23.859Z,12.17
2018-12-19T14:10:57.670Z,14.07
2018-12-19T14:13:31.510Z,14.13
2018-12-19T14:16:05.568Z,15.50
2018-12-19T14:18:39.378Z,16.00
2018-12-19T14:21:13.746Z,15.93
2018-12-19T14:23:47.660Z,19.33
2018-12-19T14:26:21.457Z,16.80
2018-12-19T14:28:56.256Z,16.67
2018-12-19T14:31:29.925Z,18.90
2018-12-19T14:34:03.588Z,16.77
2018-12-19T14:36:37.606Z,18.43
2018-12-19T14:39:11.461Z,17.67
2018-12-19T14:41:45.154Z,17.70
2018-12-19T14:44:19.932Z,16.97
2018-12-19T14:46:53.834Z,17.83
2018-12-19T14:49:27.866Z,18.20
2018-12-19T14:52:01.843Z,17.97
2018-12-19T14:54:35.554Z,20.60
2018-12-19T14:57:09.330Z,18.80
2018-12-19T14:59:43.113Z,20.47
2018-12-19T15:02:16.923Z,18.50
2018-12-19T15:04:50.738Z,19.33
2018-12-19T15:07:24.674Z,17.30
2018-12-19T15:09:58.422Z,20.30
2018-12-19T15:12:32.143Z,22.07
2018-12-19T15:15:07.581Z,19.03
2018-12-19T15:17:41.273Z,20.80
2018-12-19T15:20:15.030Z,20.10
2018-12-19T15:22:48.922Z,20.20
2018-12-19T15:25:22.742Z,21.57
2018-12-19T15:27:56.608Z,19.37
2018-12-19T15:30:30.532Z,22.97
2018-12-19T15:33:04.397Z,21.27
2018-12-19T15:35:46.590Z,22.73
2018-12-19T15:38:20.423Z,26.20
2018-12-19T15:40:54.206Z,23.93
2018-12-19T15:43:28.041Z,22.73
2018-12-19T15:46:01.859Z,22.97
2018-12-19T15:48:35.758Z,19.77
2018-12-19T15:51:09.469Z,23.43
2018-12-19T15:53:43.286Z,20.47
2018-12-19T15:56:17.122Z,20.07
2018-12-19T15:58:50.962Z,21.57
2018-12-19T16:01:24.768Z,22.67
2018-12-19T16:03:58.755Z,20.33
2018-12-19T16:06:32.714Z,19.90
2018-12-19T16:09:06.891Z,23.30
2018-12-19T16:11:40.867Z,23.73
2018-12-19T16:14:14.729Z,22.43
2018-12-19T16:16:48.523Z,18.97
2018-12-19T16:19:22.398Z,21.70
2018-12-19T16:21:56.190Z,19.83
2018-12-19T16:24:30.114Z,21.60
2018-12-19T16:27:04.039Z,23.10
2018-12-19T16:29:37.691Z,22.83
2018-12-19T16:32:11.374Z,24.23
2018-12-19T16:34:45.393Z,24.77
2018-12-19T16:37:19.462Z,22.27
2018-12-19T16:39:53.198Z,22.00
2018-12-19T16:42:27.094Z,23.63
2018-12-19T16:45:00.917Z,23.20
2018-12-19T16:47:34.759Z,25.37
2018-12-19T16:50:08.641Z,23.93
2018-12-19T16:52:42.453Z,24.10
2018-12-19T16:55:16.270Z,27.50
2018-12-19T16:57:50.087Z,24.30
2018-12-19T17:00:23.936Z,27.00
2018-12-19T17:02:57.718Z,24.27
2018-12-19T17:05:31.639Z,27.67
2018-12-19T17:08:05.379Z,24.27
2018-12-19T17:10:39.097Z,29.23
2018-12-19T17:13:12.945Z,27.90
2018-12-19T17:15:46.722Z,26.67
2018-12-19T17:18:20.695Z,25.87
2018-12-19T17:20:54.553Z,27.37
2018-12-19T17:23:28.477Z,28.43
2018-12-19T17:26:02.406Z,28.07
2018-12-19T17:28:36.218Z,27.87
2018-12-19T17:31:09.996Z,29.87
2018-12-19T17:33:43.834Z,24.83
2018-12-19T17:36:17.659Z,25.67
2018-12-19T17:38:51.497Z,27.63
2018-12-19T17:41:25.457Z,26.13
2018-12-19T17:43:59.382Z,25.00
2018-12-19T17:46:33.242Z,29.10
2018-12-19T17:49:07.133Z,28.27
2018-12-19T17:51:40.950Z,26.23
2018-12-19T17:54:14.774Z,25.10
2018-12-19T17:56:48.712Z,28.60
2018-12-19T17:59:22.606Z,25.30
2018-12-19T18:01:56.475Z,28.73
2018-12-19T18:04:30.310Z,26.20
2018-12-19T18:07:04.247Z,26.23
2018-12-19T18:09:38.134Z,27.27
2018-12-19T18:12:12.080Z,30.43
2018-12-19T18:14:45.928Z,29.90
2018-12-19T18:17:19.713Z,29.80
2018-12-19T18:19:53.544Z,25.47
2018-12-19T18:22:27.389Z,27.23
2018-12-19T18:25:01.217Z,28.47
2018-12-19T18:27:35.235Z,28.80
2018-12-19T18:30:09.265Z,26.50
2018-12-19T18:32:42.990Z,27.83
2018-12-19T18:35:16.797Z,26.93
2018-12-19T18:37:50.865Z,25.50
2018-12-19T18:40:24.944Z,26.37
2018-12-19T18:42:58.828Z,24.97
2018-12-19T18:45:32.625Z,25.57
2018-12-19T18:48:06.537Z,24.10
2018-12-19T18:50:41.933Z,28.37
2018-12-19T18:53:15.990Z,27.33
2018-12-19T18:55:49.718Z,28.20
2018-12-19T18:58:23.672Z,34.47
2018-12-19T19:00:57.577Z,52.43
2018-12-19T19:03:31.554Z,41.43
2018-12-19T19:06:05.561Z,37.77
2018-12-19T19:08:39.636Z,36.80
2018-12-19T19:11:13.682Z,43.57
2018-12-19T19:13:47.789Z,45.07
2018-12-19T19:16:21.847Z,49.27
2018-12-19T19:18:55.653Z,47.13
2018-12-19T19:21:29.637Z,41.63
2018-12-19T19:24:03.419Z,44.27
2018-12-19T19:26:37.208Z,42.43
2018-12-19T19:29:11.198Z,41.07
2018-12-19T19:31:45.073Z,40.07
2018-12-19T19:34:24.876Z,48.33
2018-12-19T19:36:54.708Z,45.03
2018-12-19T19:39:28.468Z,39.10
2018-12-19T19:42:02.178Z,34.13
2018-12-19T19:44:35.984Z,38.67
2018-12-19T19:47:09.925Z,36.63
2018-12-19T19:49:43.929Z,38.40
2018-12-19T19:52:17.941Z,31.90
2018-12-19T19:54:52.097Z,33.80
2018-12-19T19:57:25.903Z,35.43
2018-12-19T19:59:59.759Z,30.03
2018-12-19T20:02:33.811Z,29.97
2018-12-19T20:05:07.840Z,27.97
2018-12-19T20:07:41.654Z,34.67
2018-12-19T20:10:15.468Z,28.57
2018-12-19T20:12:49.159Z,32.27
2018-12-19T20:15:23.230Z,30.67
2018-12-19T20:17:57.042Z,29.20
2018-12-19T20:20:30.876Z,30.77
2018-12-19T20:23:04.697Z,32.87
2018-12-19T20:25:38.527Z,30.90
2018-12-19T20:28:12.385Z,31.20
2018-12-19T20:30:46.118Z,30.90
2018-12-19T20:33:20.043Z,29.17
2018-12-19T20:35:53.933Z,29.50
2018-12-19T20:38:27.729Z,27.80
2018-12-19T20:41:01.628Z,34.97
2018-12-19T20:43:39.934Z,29.77
2018-12-19T20:46:12.465Z,28.07
2018-12-19T20:48:46.331Z,28.90
2018-12-19T20:51:21.090Z,23.37
2018-12-19T20:53:55.092Z,27.47
2018-12-19T20:56:28.876Z,29.23
2018-12-19T20:59:02.687Z,28.00
2018-12-19T21:01:36.588Z,30.63
2018-12-19T21:04:11.369Z,26.93
2018-12-19T21:06:45.196Z,27.73
2018-12-19T21:09:19.381Z,26.70
2018-12-19T21:11:53.257Z,25.90
2018-12-19T21:14:26.996Z,25.37
2018-12-19T21:17:07.642Z,24.93
2018-12-19T21:19:41.531Z,25.90
2018-12-19T21:22:16.382Z,24.93
2018-12-19T21:24:50.073Z,25.10
2018-12-19T21:27:23.882Z,27.37
2018-12-19T21:29:57.869Z,24.93
2018-12-19T21:32:31.713Z,26.87
2018-12-19T21:35:06.646Z,26.03
2018-12-19T21:37:40.737Z,24.50
2018-12-19T21:40:14.508Z,26.77
2018-12-19T21:42:48.697Z,28.23
2018-12-19T21:45:22.767Z,28.03
2018-12-19T21:47:56.637Z,26.60
2018-12-19T21:50:30.678Z,28.17
2018-12-19T21:53:04.618Z,28.43
2018-12-19T21:55:38.645Z,26.60
2018-12-19T21:58:12.569Z,27.37
2018-12-19T22:00:46.431Z,28.50
2018-12-19T22:03:20.540Z,24.20
2018-12-19T22:05:54.806Z,27.93
2018-12-19T22:08:28.892Z,28.97
2018-12-19T22:11:02.952Z,23.73
2018-12-19T22:13:36.777Z,28.53
2018-12-19T22:16:12.638Z,26.57
2018-12-19T22:18:47.288Z,29.60
2018-12-19T22:21:21.339Z,27.00
2018-12-19T22:23:55.631Z,26.13
2018-12-19T22:26:31.045Z,28.60
2018-12-19T22:29:05.843Z,27.60
2018-12-19T22:31:39.707Z,26.80
2018-12-19T22:34:13.499Z,29.50
2018-12-19T22:36:47.350Z,28.53
2018-12-19T22:39:21.252Z,29.83
2018-12-19T22:41:55.091Z,30.63
2018-12-19T22:44:28.921Z,27.17
2018-12-19T22:47:02.879Z,32.97
2018-12-19T22:49:36.834Z,28.73
2018-12-19T22:52:10.764Z,30.83
2018-12-19T22:54:44.911Z,28.77
2018-12-19T22:57:18.966Z,28.53
2018-12-19T22:59:52.853Z,32.43
2018-12-19T23:02:32.374Z,31.50
2018-12-19T23:05:06.255Z,28.27
2018-12-19T23:07:39.958Z,31.47
2018-12-19T23:10:14.031Z,29.93
2018-12-19T23:12:48.032Z,29.97
2018-12-19T23:15:22.044Z,32.37
2018-12-19T23:17:58.140Z,30.03
2018-12-19T23:20:31.981Z,30.70
2018-12-19T23:23:05.811Z,31.00
2018-12-19T23:25:39.806Z,33.50
2018-12-19T23:28:14.136Z,32.67
2018-12-19T23:30:47.988Z,31.47
2018-12-19T23:33:22.152Z,31.77
2018-12-19T23:35:56.009Z,34.00
2018-12-19T23:38:29.846Z,35.13
2018-12-19T23:41:03.990Z,33.37
2018-12-19T23:43:37.874Z,33.60
2018-12-19T23:46:11.718Z,34.13
2018-12-19T23:48:45.660Z,32.77
2018-12-19T23:51:19.701Z,28.57
2018-12-19T23:53:53.808Z,30.73
2018-12-19T23:56:27.788Z,30.47
2018-12-19T23:59:01.495Z,30.03
